createdAt,value
2016-09-13T00:00:14.100Z,19.87
2016-09-13T00:00:54.633Z,19.81
2016-09-13T00:01:35.170Z,19.87
2016-09-13T00:02:15.709Z,19.88
2016-09-13T00:02:56.229Z,19.91
2016-09-13T00:03:36.775Z,20.01
2016-09-13T00:04:17.319Z,19.92
2016-09-13T00:04:57.846Z,20.01
2016-09-13T00:05:38.378Z,19.92
2016-09-13T00:06:18.894Z,19.87
2016-09-13T00:06:59.439Z,19.94
2016-09-13T00:07:39.976Z,19.99
2016-09-13T00:08:20.514Z,19.86
2016-09-13T00:09:01.054Z,19.87
2016-09-13T00:09:41.602Z,19.99
2016-09-13T00:10:22.138Z,19.87
2016-09-13T00:11:02.680Z,19.96
2016-09-13T00:11:43.212Z,19.91
2016-09-13T00:12:23.751Z,19.94
2016-09-13T00:13:04.318Z,19.99
2016-09-13T00:13:44.871Z,19.92
2016-09-13T00:14:25.396Z,19.88
2016-09-13T00:15:05.924Z,19.96
2016-09-13T00:15:46.446Z,19.91
2016-09-13T00:16:26.984Z,19.91
2016-09-13T00:17:07.517Z,19.87
2016-09-13T00:17:48.042Z,19.96
2016-09-13T00:18:28.591Z,19.86
2016-09-13T00:19:09.124Z,19.87
2016-09-13T00:19:49.653Z,19.86
2016-09-13T00:20:30.193Z,19.91
2016-09-13T00:21:10.719Z,19.87
2016-09-13T00:21:51.265Z,19.86
2016-09-13T00:22:31.807Z,19.91
2016-09-13T00:23:12.348Z,20.02
2016-09-13T00:23:52.883Z,19.99
2016-09-13T00:24:33.426Z,19.87
2016-09-13T00:25:13.965Z,19.87
2016-09-13T00:25:54.483Z,19.86
2016-09-13T00:26:34.998Z,19.87
2016-09-13T00:27:15.536Z,19.91
2016-09-13T00:27:56.080Z,19.94
2016-09-13T00:28:36.613Z,19.88
2016-09-13T00:29:17.133Z,19.86
2016-09-13T00:29:57.677Z,19.94
2016-09-13T00:30:38.210Z,19.91
2016-09-13T00:31:18.743Z,19.91
2016-09-13T00:31:59.317Z,19.91
2016-09-13T00:32:39.848Z,19.92
2016-09-13T00:33:20.393Z,19.91
2016-09-13T00:34:00.918Z,19.91
2016-09-13T00:34:41.448Z,19.84
2016-09-13T00:35:21.973Z,19.88
2016-09-13T00:36:02.517Z,19.86
2016-09-13T00:36:43.071Z,19.8
2016-09-13T00:37:23.589Z,19.92
2016-09-13T00:38:04.119Z,19.74
2016-09-13T00:38:44.663Z,19.74
2016-09-13T00:39:25.191Z,19.8
2016-09-13T00:40:05.696Z,19.8
2016-09-13T00:40:46.235Z,19.8
2016-09-13T00:41:26.781Z,19.8
2016-09-13T00:42:07.318Z,19.77
2016-09-13T00:42:47.857Z,19.73
2016-09-13T00:43:28.395Z,19.74
2016-09-13T00:44:08.925Z,19.71
2016-09-13T00:44:49.447Z,19.73
2016-09-13T00:45:29.998Z,19.73
2016-09-13T00:46:10.540Z,19.76
2016-09-13T00:46:51.077Z,19.61
2016-09-13T00:47:31.637Z,19.71
2016-09-13T00:48:12.161Z,19.66
2016-09-13T00:48:52.687Z,19.71
2016-09-13T00:49:33.227Z,19.62
2016-09-13T00:50:13.776Z,19.63
2016-09-13T00:50:54.313Z,19.59
2016-09-13T00:51:34.868Z,19.59
2016-09-13T00:52:15.399Z,19.58
2016-09-13T00:52:55.937Z,19.54
2016-09-13T00:53:36.476Z,19.51
2016-09-13T00:54:17.013Z,19.54
2016-09-13T00:54:57.544Z,19.51
2016-09-13T00:55:38.084Z,19.48
2016-09-13T00:56:18.633Z,19.41
2016-09-13T00:56:59.156Z,19.4
2016-09-13T00:57:39.686Z,19.39
2016-09-13T00:58:20.223Z,19.41
2016-09-13T00:59:00.760Z,19.4
2016-09-13T00:59:41.288Z,19.46
2016-09-13T01:00:21.804Z,19.32
2016-09-13T01:01:02.330Z,19.26
2016-09-13T01:01:42.879Z,19.22
2016-09-13T01:02:23.391Z,19.36
2016-09-13T01:03:03.919Z,19.36
2016-09-13T01:03:44.464Z,19.26
2016-09-13T01:04:25.014Z,19.22
2016-09-13T01:05:05.520Z,19.31
2016-09-13T01:05:46.047Z,19.32
2016-09-13T01:06:26.578Z,19.31
2016-09-13T01:07:07.106Z,19.31
2016-09-13T01:07:47.649Z,19.28
2016-09-13T01:08:28.183Z,19.31
2016-09-13T01:09:08.703Z,19.25
2016-09-13T01:09:49.232Z,19.32
2016-09-13T01:10:29.767Z,19.28
2016-09-13T01:11:10.315Z,19.39
2016-09-13T01:11:50.838Z,19.36
2016-09-13T01:12:31.372Z,19.36
2016-09-13T01:13:11.901Z,19.37
2016-09-13T01:13:52.461Z,19.36
2016-09-13T01:14:32.998Z,19.37
2016-09-13T01:15:13.524Z,19.37
2016-09-13T01:15:54.074Z,19.39
2016-09-13T01:16:34.605Z,19.37
2016-09-13T01:17:15.141Z,19.39
2016-09-13T01:17:55.651Z,19.39
2016-09-13T01:18:36.200Z,19.36
2016-09-13T01:19:16.712Z,19.36
2016-09-13T01:19:57.249Z,19.36
2016-09-13T01:20:37.813Z,19.32
2016-09-13T01:21:18.319Z,19.4
2016-09-13T01:21:58.861Z,19.22
2016-09-13T01:22:39.372Z,19.29
2016-09-13T01:23:19.902Z,19.32
2016-09-13T01:24:00.444Z,19.29
2016-09-13T01:24:40.965Z,19.28
2016-09-13T01:25:21.521Z,19.29
2016-09-13T01:26:02.038Z,19.28
2016-09-13T01:26:42.568Z,19.23
2016-09-13T01:27:23.089Z,19.28
2016-09-13T01:28:03.621Z,19.26
2016-09-13T01:28:44.157Z,19.18
2016-09-13T01:29:24.701Z,19.25
2016-09-13T01:30:05.250Z,19.23
2016-09-13T01:30:45.774Z,19.29
2016-09-13T01:31:26.299Z,19.25
2016-09-13T01:32:06.832Z,19.14
2016-09-13T01:32:54.112Z,19.28
2016-09-13T01:33:34.671Z,19.23
2016-09-13T01:34:15.201Z,19.28
2016-09-13T01:34:55.740Z,19.22
2016-09-13T01:35:36.272Z,19.19
2016-09-13T01:36:16.810Z,19.21
2016-09-13T01:36:57.351Z,19.25
2016-09-13T01:37:37.901Z,19.19
2016-09-13T01:38:18.424Z,19.19
2016-09-13T01:38:58.958Z,19.22
2016-09-13T01:39:39.481Z,19.19
2016-09-13T01:40:20.044Z,19.16
2016-09-13T01:41:00.567Z,19.22
2016-09-13T01:41:41.104Z,19.28
2016-09-13T01:42:21.638Z,19.28
2016-09-13T01:43:02.153Z,19.22
2016-09-13T01:43:42.687Z,19.31
2016-09-13T01:44:23.239Z,19.21
2016-09-13T01:45:03.777Z,19.29
2016-09-13T01:45:44.317Z,19.22
2016-09-13T01:46:24.836Z,19.25
2016-09-13T01:47:05.372Z,19.31
2016-09-13T01:47:45.929Z,19.25
2016-09-13T01:48:26.463Z,19.25
2016-09-13T01:49:06.983Z,19.21
2016-09-13T01:49:47.510Z,19.26
2016-09-13T01:50:28.035Z,19.25
2016-09-13T01:51:08.574Z,19.16
2016-09-13T01:51:49.099Z,19.22
2016-09-13T01:52:29.634Z,19.25
2016-09-13T01:53:10.176Z,19.13
2016-09-13T01:53:50.710Z,19.21
2016-09-13T01:54:31.257Z,19.22
2016-09-13T01:55:11.767Z,19.21
2016-09-13T01:55:52.318Z,19.16
2016-09-13T01:56:32.846Z,19.16
2016-09-13T01:57:13.356Z,19.18
2016-09-13T01:57:53.894Z,19.13
2016-09-13T01:58:34.421Z,19.1
2016-09-13T01:59:14.985Z,19.16
2016-09-13T01:59:55.530Z,19.19
2016-09-13T02:00:36.060Z,19.23
2016-09-13T02:01:16.611Z,19.22
2016-09-13T02:01:57.139Z,19.22
2016-09-13T02:02:37.681Z,19.21
2016-09-13T02:03:18.220Z,19.21
2016-09-13T02:03:58.765Z,19.18
2016-09-13T02:04:39.297Z,19.26
2016-09-13T02:05:19.835Z,19.26
2016-09-13T02:06:00.362Z,19.28
2016-09-13T02:06:40.901Z,19.26
2016-09-13T02:07:21.445Z,19.28
2016-09-13T02:08:01.989Z,19.21
2016-09-13T02:08:42.503Z,19.16
2016-09-13T02:09:23.036Z,19.16
2016-09-13T02:10:03.586Z,19.16
2016-09-13T02:10:44.120Z,19.18
2016-09-13T02:11:24.664Z,19.21
2016-09-13T02:12:05.198Z,19.26
2016-09-13T02:12:45.736Z,19.19
2016-09-13T02:13:26.270Z,19.19
2016-09-13T02:14:06.800Z,19.23
2016-09-13T02:14:47.311Z,19.29
2016-09-13T02:15:27.857Z,19.26
2016-09-13T02:16:08.417Z,19.25
2016-09-13T02:16:48.937Z,19.25
2016-09-13T02:17:29.475Z,19.22
2016-09-13T02:18:09.999Z,19.28
2016-09-13T02:18:50.547Z,19.25
2016-09-13T02:19:31.084Z,19.22
2016-09-13T02:20:11.634Z,19.23
2016-09-13T02:20:52.169Z,19.26
2016-09-13T02:21:32.689Z,19.22
2016-09-13T02:22:13.239Z,19.22
2016-09-13T02:22:53.768Z,19.31
2016-09-13T02:23:34.285Z,19.23
2016-09-13T02:24:14.832Z,19.21
2016-09-13T02:24:55.378Z,19.22
2016-09-13T02:25:35.903Z,19.25
2016-09-13T02:26:16.454Z,19.31
2016-09-13T02:26:56.966Z,19.25
2016-09-13T02:27:37.520Z,19.22
2016-09-13T02:28:18.072Z,19.28
2016-09-13T02:28:58.584Z,19.23
2016-09-13T02:29:39.131Z,19.29
2016-09-13T02:30:19.663Z,19.26
2016-09-13T02:31:00.202Z,19.31
2016-09-13T02:31:40.747Z,19.22
2016-09-13T02:32:21.277Z,19.32
2016-09-13T02:33:01.810Z,19.23
2016-09-13T02:33:42.342Z,19.21
2016-09-13T02:34:22.881Z,19.19
2016-09-13T02:35:03.429Z,19.22
2016-09-13T02:35:43.970Z,19.23
2016-09-13T02:36:24.521Z,19.22
2016-09-13T02:37:05.067Z,19.31
2016-09-13T02:37:45.601Z,19.25
2016-09-13T02:38:26.139Z,19.31
2016-09-13T02:39:06.662Z,19.28
2016-09-13T02:39:47.223Z,19.28
2016-09-13T02:40:27.756Z,19.26
2016-09-13T02:41:08.300Z,19.29
2016-09-13T02:41:48.830Z,19.25
2016-09-13T02:42:29.384Z,19.25
2016-09-13T02:43:09.925Z,19.28
2016-09-13T02:43:50.453Z,19.28
2016-09-13T02:44:30.966Z,19.31
2016-09-13T02:45:11.496Z,19.28
2016-09-13T02:45:52.046Z,19.28
2016-09-13T02:46:32.564Z,19.16
2016-09-13T02:47:13.083Z,19.25
2016-09-13T02:47:53.619Z,19.18
2016-09-13T02:48:34.143Z,19.16
2016-09-13T02:49:14.650Z,19.1
2016-09-13T02:49:55.170Z,19.18
2016-09-13T02:50:35.680Z,19.16
2016-09-13T02:51:16.199Z,19.14
2016-09-13T02:51:56.754Z,19.13
2016-09-13T02:52:37.272Z,19.1
2016-09-13T02:53:17.809Z,19.06
2016-09-13T02:53:58.335Z,19.04
2016-09-13T02:54:38.862Z,19.06
2016-09-13T02:55:19.377Z,18.98
2016-09-13T02:55:59.918Z,18.94
2016-09-13T02:56:40.454Z,18.94
2016-09-13T02:57:21.005Z,18.95
2016-09-13T02:58:01.556Z,18.85
2016-09-13T02:58:42.087Z,18.78
2016-09-13T02:59:22.613Z,18.81
2016-09-13T03:00:03.129Z,18.76
2016-09-13T03:00:43.722Z,18.81
2016-09-13T03:01:24.262Z,18.78
2016-09-13T03:02:04.799Z,18.8
2016-09-13T03:02:45.334Z,18.76
2016-09-13T03:03:25.886Z,18.76
2016-09-13T03:04:06.434Z,18.76
2016-09-13T03:04:46.971Z,18.8
2016-09-13T03:05:27.507Z,18.76
2016-09-13T03:06:08.046Z,18.78
2016-09-13T03:06:48.616Z,18.81
2016-09-13T03:07:29.167Z,18.81
2016-09-13T03:08:09.716Z,18.82
2016-09-13T03:08:50.252Z,18.78
2016-09-13T03:09:30.796Z,18.81
2016-09-13T03:10:11.333Z,18.76
2016-09-13T03:10:51.859Z,18.82
2016-09-13T03:11:32.394Z,18.78
2016-09-13T03:12:12.936Z,18.81
2016-09-13T03:12:53.466Z,18.8
2016-09-13T03:13:34.000Z,18.82
2016-09-13T03:14:14.552Z,18.82
2016-09-13T03:14:55.098Z,18.8
2016-09-13T03:15:35.655Z,18.8
2016-09-13T03:16:16.164Z,18.78
2016-09-13T03:16:56.700Z,18.82
2016-09-13T03:17:37.245Z,18.8
2016-09-13T03:18:17.793Z,18.78
2016-09-13T03:18:58.347Z,18.78
2016-09-13T03:19:38.888Z,18.8
2016-09-13T03:20:19.592Z,18.8
2016-09-13T03:21:00.140Z,18.81
2016-09-13T03:21:40.697Z,18.8
2016-09-13T03:22:21.241Z,18.8
2016-09-13T03:23:01.775Z,18.76
2016-09-13T03:23:42.329Z,18.82
2016-09-13T03:24:22.875Z,18.81
2016-09-13T03:25:03.429Z,18.8
2016-09-13T03:25:43.965Z,18.75
2016-09-13T03:26:24.479Z,18.8
2016-09-13T03:27:05.017Z,18.78
2016-09-13T03:27:45.553Z,18.8
2016-09-13T03:28:26.078Z,18.78
2016-09-13T03:29:06.619Z,18.85
2016-09-13T03:29:47.146Z,18.78
2016-09-13T03:30:27.696Z,18.78
2016-09-13T03:31:08.202Z,18.78
2016-09-13T03:31:48.757Z,18.75
2016-09-13T03:32:29.270Z,18.75
2016-09-13T03:33:09.845Z,18.82
2016-09-13T03:33:50.371Z,18.8
2016-09-13T03:34:30.883Z,18.76
2016-09-13T03:35:11.450Z,18.7
2016-09-13T03:35:51.983Z,18.73
2016-09-13T03:36:32.544Z,18.8
2016-09-13T03:37:13.071Z,18.73
2016-09-13T03:37:53.605Z,18.63
2016-09-13T03:38:34.156Z,18.65
2016-09-13T03:39:14.671Z,18.72
2016-09-13T03:39:55.188Z,18.67
2016-09-13T03:40:35.716Z,18.66
2016-09-13T03:41:16.235Z,18.67
2016-09-13T03:41:56.778Z,18.72
2016-09-13T03:42:37.302Z,18.65
2016-09-13T03:43:17.842Z,18.57
2016-09-13T03:43:58.422Z,18.66
2016-09-13T03:45:54.650Z,18.62
2016-09-13T03:46:35.128Z,18.52
2016-09-13T03:47:15.617Z,18.5
2016-09-13T03:47:56.148Z,18.5
2016-09-13T03:48:36.673Z,18.47
2016-09-13T03:49:17.192Z,18.5
2016-09-13T03:49:57.719Z,18.5
2016-09-13T03:50:38.256Z,18.48
2016-09-13T03:51:18.791Z,18.52
2016-09-13T03:51:59.338Z,18.5
2016-09-13T03:52:39.874Z,18.54
2016-09-13T03:53:20.383Z,18.47
2016-09-13T03:54:00.924Z,18.45
2016-09-13T03:54:41.470Z,18.48
2016-09-13T03:55:22.011Z,18.44
2016-09-13T03:56:02.543Z,18.52
2016-09-13T03:56:43.062Z,18.48
2016-09-13T03:57:23.599Z,18.45
2016-09-13T03:58:04.139Z,18.42
2016-09-13T03:58:44.683Z,18.44
2016-09-13T03:59:25.229Z,18.5
2016-09-13T04:00:05.774Z,18.47
2016-09-13T04:00:46.337Z,18.35
2016-09-13T04:01:26.889Z,18.37
2016-09-13T04:02:07.421Z,18.42
2016-09-13T04:02:47.968Z,18.37
2016-09-13T04:03:28.495Z,18.36
2016-09-13T04:04:08.981Z,18.36
2016-09-13T04:04:49.515Z,18.42
2016-09-13T04:05:30.034Z,18.42
2016-09-13T04:06:10.561Z,18.37
2016-09-13T04:06:51.071Z,18.27
2016-09-13T04:07:31.640Z,18.33
2016-09-13T04:08:12.573Z,18.36
2016-09-13T04:08:53.116Z,18.3
2016-09-13T04:09:33.648Z,18.3
2016-09-13T04:10:14.204Z,18.37
2016-09-13T04:10:54.705Z,18.3
2016-09-13T04:11:35.218Z,18.32
2016-09-13T04:12:15.734Z,18.39
2016-09-13T04:12:56.236Z,18.33
2016-09-13T04:13:36.778Z,18.35
2016-09-13T04:14:17.303Z,18.44
2016-09-13T04:14:57.779Z,18.27
2016-09-13T04:15:38.303Z,18.33
2016-09-13T04:16:18.823Z,18.29
2016-09-13T04:16:59.399Z,18.37
2016-09-13T04:17:39.945Z,18.42
2016-09-13T04:18:20.461Z,18.41
2016-09-13T04:19:01.002Z,18.3
2016-09-13T04:19:41.542Z,18.41
2016-09-13T04:20:22.071Z,18.27
2016-09-13T04:21:02.628Z,18.44
2016-09-13T04:21:43.164Z,18.44
2016-09-13T04:22:23.680Z,18.35
2016-09-13T04:23:04.235Z,18.45
2016-09-13T04:23:44.805Z,18.3
2016-09-13T04:24:25.368Z,18.35
2016-09-13T04:25:05.868Z,18.37
2016-09-13T04:25:46.432Z,18.48
2016-09-13T04:26:28.015Z,18.48
2016-09-13T04:27:08.928Z,18.44
2016-09-13T04:27:49.452Z,18.51
2016-09-13T04:28:29.973Z,18.57
2016-09-13T04:29:10.520Z,18.51
2016-09-13T04:29:51.052Z,18.52
2016-09-13T04:30:31.577Z,18.47
2016-09-13T04:31:12.105Z,18.51
2016-09-13T04:31:52.649Z,18.47
2016-09-13T04:32:33.169Z,18.51
2016-09-13T04:33:13.695Z,18.5
2016-09-13T04:33:54.242Z,18.48
2016-09-13T04:34:34.745Z,18.55
2016-09-13T04:35:15.266Z,18.57
2016-09-13T04:35:55.783Z,18.45
2016-09-13T04:36:36.319Z,18.44
2016-09-13T04:37:16.831Z,18.44
2016-09-13T04:37:57.357Z,18.47
2016-09-13T04:38:37.918Z,18.45
2016-09-13T04:39:19.128Z,18.35
2016-09-13T04:40:00.815Z,18.32
2016-09-13T04:40:42.277Z,18.41
2016-09-13T04:41:23.219Z,18.41
2016-09-13T04:42:03.772Z,18.42
2016-09-13T04:42:44.775Z,18.37
2016-09-13T04:43:25.193Z,18.35
2016-09-13T04:44:05.751Z,18.36
2016-09-13T04:44:46.277Z,18.32
2016-09-13T04:45:26.782Z,18.35
2016-09-13T04:46:07.324Z,18.35
2016-09-13T04:46:47.855Z,18.37
2016-09-13T04:47:28.373Z,18.35
2016-09-13T04:48:08.893Z,18.35
2016-09-13T04:48:49.441Z,18.3
2016-09-13T04:49:29.989Z,18.33
2016-09-13T04:50:10.536Z,18.39
2016-09-13T04:50:51.081Z,18.42
2016-09-13T04:51:31.623Z,18.27
2016-09-13T04:52:12.152Z,18.35
2016-09-13T04:52:52.676Z,18.35
2016-09-13T04:53:33.207Z,18.32
2016-09-13T04:54:13.757Z,18.36
2016-09-13T04:54:54.371Z,18.35
2016-09-13T04:55:34.916Z,18.35
2016-09-13T04:56:15.458Z,18.37
2016-09-13T04:56:55.982Z,18.35
2016-09-13T04:57:36.549Z,18.36
2016-09-13T04:58:17.056Z,18.44
2016-09-13T04:58:57.580Z,18.35
2016-09-13T04:59:38.116Z,18.32
2016-09-13T05:00:18.628Z,18.33
2016-09-13T05:00:59.167Z,18.35
2016-09-13T05:01:39.701Z,18.33
2016-09-13T05:02:20.226Z,18.35
2016-09-13T05:03:00.752Z,18.37
2016-09-13T05:03:41.285Z,18.37
2016-09-13T05:04:21.806Z,18.32
2016-09-13T05:05:02.341Z,18.32
2016-09-13T05:05:42.861Z,18.44
2016-09-13T05:06:23.388Z,18.41
2016-09-13T05:07:03.936Z,18.33
2016-09-13T05:07:44.442Z,18.37
2016-09-13T05:08:24.950Z,18.27
2016-09-13T05:09:05.496Z,18.25
2016-09-13T05:09:46.020Z,18.37
2016-09-13T05:10:26.552Z,18.25
2016-09-13T05:11:07.087Z,18.21
2016-09-13T05:11:47.649Z,18.26
2016-09-13T05:12:28.185Z,18.29
2016-09-13T05:13:08.712Z,18.29
2016-09-13T05:13:49.242Z,18.26
2016-09-13T05:14:29.769Z,18.25
2016-09-13T05:15:10.310Z,18.29
2016-09-13T05:15:50.833Z,18.29
2016-09-13T05:16:31.373Z,18.29
2016-09-13T05:17:11.912Z,18.25
2016-09-13T05:17:52.442Z,18.2
2016-09-13T05:18:32.970Z,18.26
2016-09-13T05:19:13.516Z,18.18
2016-09-13T05:19:54.031Z,18.23
2016-09-13T05:20:34.562Z,18.18
2016-09-13T05:21:15.095Z,18.18
2016-09-13T05:21:55.625Z,18.14
2016-09-13T05:22:36.159Z,18.17
2016-09-13T05:23:16.706Z,18.18
2016-09-13T05:23:57.239Z,18.14
2016-09-13T05:24:37.780Z,18.14
2016-09-13T05:25:18.321Z,18.17
2016-09-13T05:25:58.853Z,18.14
2016-09-13T05:26:39.398Z,18.15
2016-09-13T05:27:19.949Z,18.14
2016-09-13T05:28:00.466Z,18.17
2016-09-13T05:28:41.017Z,18.15
2016-09-13T05:29:21.559Z,18.17
2016-09-13T05:30:02.096Z,18.14
2016-09-13T05:30:42.625Z,18.17
2016-09-13T05:31:23.143Z,18.14
2016-09-13T05:32:03.720Z,18.18
2016-09-13T05:32:44.246Z,18.17
2016-09-13T05:33:24.784Z,18.23
2016-09-13T05:34:05.318Z,18.17
2016-09-13T05:34:45.862Z,18.15
2016-09-13T05:35:26.397Z,18.2
2016-09-13T05:36:06.940Z,18.14
2016-09-13T05:36:47.478Z,18.15
2016-09-13T05:37:28.024Z,18.17
2016-09-13T05:38:08.555Z,18.17
2016-09-13T05:38:49.107Z,18.15
2016-09-13T05:39:29.644Z,18.18
2016-09-13T05:40:10.179Z,18.17
2016-09-13T05:40:50.742Z,18.14
2016-09-13T05:41:31.268Z,18.2
2016-09-13T05:42:11.821Z,18.2
2016-09-13T05:42:52.350Z,18.2
2016-09-13T05:43:32.879Z,18.15
2016-09-13T05:44:13.445Z,18.2
2016-09-13T05:44:53.961Z,18.21
2016-09-13T05:45:34.481Z,18.17
2016-09-13T05:46:15.001Z,18.18
2016-09-13T05:46:55.534Z,18.2
2016-09-13T05:47:36.064Z,18.26
2016-09-13T05:48:16.601Z,18.23
2016-09-13T05:48:57.136Z,18.25
2016-09-13T05:49:37.663Z,18.26
2016-09-13T05:50:18.196Z,18.27
2016-09-13T05:50:58.735Z,18.26
2016-09-13T05:51:39.281Z,18.23
2016-09-13T05:52:19.820Z,18.25
2016-09-13T05:53:00.363Z,18.27
2016-09-13T05:53:41.062Z,18.26
2016-09-13T05:54:21.556Z,18.35
2016-09-13T05:55:02.077Z,18.36
2016-09-13T05:55:42.615Z,18.32
2016-09-13T05:56:23.121Z,18.33
2016-09-13T05:57:03.650Z,18.3
2016-09-13T05:57:44.191Z,18.32
2016-09-13T05:58:24.714Z,18.44
2016-09-13T05:59:05.252Z,18.39
2016-09-13T05:59:45.783Z,18.35
2016-09-13T06:00:26.288Z,18.37
2016-09-13T06:01:06.827Z,18.36
2016-09-13T06:01:47.363Z,18.39
2016-09-13T06:02:27.871Z,18.32
2016-09-13T06:03:08.387Z,18.33
2016-09-13T06:03:48.920Z,18.41
2016-09-13T06:04:29.466Z,18.33
2016-09-13T06:05:09.984Z,18.37
2016-09-13T06:05:50.545Z,18.37
2016-09-13T06:06:31.078Z,18.44
2016-09-13T06:07:11.639Z,18.45
2016-09-13T06:07:52.181Z,18.48
2016-09-13T06:08:32.698Z,18.47
2016-09-13T06:09:13.200Z,18.42
2016-09-13T06:09:53.740Z,18.42
2016-09-13T06:10:34.271Z,18.42
2016-09-13T06:11:14.790Z,18.48
2016-09-13T06:11:55.333Z,18.51
2016-09-13T06:12:35.874Z,18.54
2016-09-13T06:13:16.389Z,18.48
2016-09-13T06:13:56.893Z,18.5
2016-09-13T06:14:37.451Z,18.5
2016-09-13T06:15:18.003Z,18.47
2016-09-13T06:15:58.520Z,18.5
2016-09-13T06:16:39.045Z,18.5
2016-09-13T06:17:19.580Z,18.47
2016-09-13T06:18:00.088Z,18.48
2016-09-13T06:18:40.635Z,18.54
2016-09-13T06:19:21.157Z,18.47
2016-09-13T06:20:01.690Z,18.48
2016-09-13T06:20:42.223Z,18.5
2016-09-13T06:21:22.749Z,18.5
2016-09-13T06:22:03.292Z,18.48
2016-09-13T06:22:43.827Z,18.58
2016-09-13T06:23:24.370Z,18.63
2016-09-13T06:24:04.929Z,18.6
2016-09-13T06:24:45.419Z,18.6
2016-09-13T06:25:25.951Z,18.6
2016-09-13T06:26:06.474Z,18.65
2016-09-13T06:26:46.987Z,18.6
2016-09-13T06:27:27.518Z,18.57
2016-09-13T06:28:08.035Z,18.72
2016-09-13T06:28:48.570Z,18.65
2016-09-13T06:29:29.110Z,18.69
2016-09-13T06:30:09.642Z,18.76
2016-09-13T06:30:50.177Z,18.7
2016-09-13T06:31:30.697Z,18.73
2016-09-13T06:32:11.236Z,18.7
2016-09-13T06:32:51.784Z,18.72
2016-09-13T06:33:32.303Z,18.8
2016-09-13T06:34:12.831Z,18.8
2016-09-13T06:34:53.377Z,18.81
2016-09-13T06:35:33.922Z,18.82
2016-09-13T06:36:14.485Z,18.76
2016-09-13T06:36:55.014Z,18.82
2016-09-13T06:37:35.531Z,18.81
2016-09-13T06:38:16.078Z,18.84
2016-09-13T06:38:56.611Z,18.91
2016-09-13T06:39:37.142Z,18.85
2016-09-13T06:40:17.665Z,18.81
2016-09-13T06:40:58.196Z,18.91
2016-09-13T06:41:38.756Z,18.91
2016-09-13T06:42:19.296Z,18.87
2016-09-13T06:42:59.833Z,18.94
2016-09-13T06:43:40.382Z,18.95
2016-09-13T06:44:20.922Z,18.94
2016-09-13T06:45:01.459Z,18.95
2016-09-13T06:45:42.002Z,18.99
2016-09-13T06:46:22.531Z,19.08
2016-09-13T06:47:03.058Z,19.06
2016-09-13T06:47:43.595Z,19.04
2016-09-13T06:48:24.140Z,19.13
2016-09-13T06:49:04.685Z,19.08
2016-09-13T06:49:45.208Z,19.13
2016-09-13T06:50:25.733Z,19.14
2016-09-13T06:51:06.261Z,19.18
2016-09-13T06:51:46.807Z,19.23
2016-09-13T06:52:27.325Z,19.26
2016-09-13T06:53:07.890Z,19.29
2016-09-13T06:53:48.436Z,19.32
2016-09-13T06:54:28.971Z,19.32
2016-09-13T06:55:09.512Z,19.33
2016-09-13T06:55:50.046Z,19.36
2016-09-13T06:56:30.593Z,19.33
2016-09-13T06:57:11.143Z,19.41
2016-09-13T06:57:51.681Z,19.4
2016-09-13T06:58:32.223Z,19.48
2016-09-13T06:59:12.755Z,19.5
2016-09-13T06:59:53.273Z,19.61
2016-09-13T07:00:33.830Z,19.58
2016-09-13T07:01:14.348Z,19.56
2016-09-13T07:01:54.891Z,19.68
2016-09-13T07:02:35.417Z,19.73
2016-09-13T07:03:15.950Z,19.74
2016-09-13T07:03:56.498Z,19.78
2016-09-13T07:04:37.044Z,19.78
2016-09-13T07:05:17.577Z,19.78
2016-09-13T07:05:58.118Z,19.77
2016-09-13T07:06:38.648Z,19.86
2016-09-13T07:07:19.178Z,19.91
2016-09-13T07:07:59.670Z,19.92
2016-09-13T07:08:40.188Z,19.86
2016-09-13T07:09:20.705Z,20.03
2016-09-13T07:10:01.263Z,20.13
2016-09-13T07:10:41.763Z,20.01
2016-09-13T07:11:22.276Z,20.14
2016-09-13T07:12:02.804Z,20.13
2016-09-13T07:12:43.329Z,20.18
2016-09-13T07:13:23.843Z,20.16
2016-09-13T07:14:04.409Z,20.24
2016-09-13T07:14:44.903Z,20.23
2016-09-13T07:15:25.420Z,20.28
2016-09-13T07:16:05.925Z,20.31
2016-09-13T07:16:46.447Z,20.32
2016-09-13T07:17:27.005Z,20.33
2016-09-13T07:18:07.533Z,20.47
2016-09-13T07:18:48.074Z,20.43
2016-09-13T07:19:28.647Z,20.48
2016-09-13T07:20:09.190Z,20.47
2016-09-13T07:20:49.746Z,20.48
2016-09-13T07:21:30.262Z,20.51
2016-09-13T07:22:10.780Z,20.55
2016-09-13T07:22:51.316Z,20.48
2016-09-13T07:23:31.881Z,20.55
2016-09-13T07:24:12.449Z,20.59
2016-09-13T07:24:52.993Z,20.62
2016-09-13T07:25:33.549Z,20.61
2016-09-13T07:26:14.089Z,20.74
2016-09-13T07:26:54.653Z,20.7
2016-09-13T07:27:35.172Z,20.79
2016-09-13T07:28:15.741Z,20.69
2016-09-13T07:28:56.292Z,20.77
2016-09-13T07:29:36.806Z,20.84
2016-09-13T07:30:17.405Z,20.87
2016-09-13T07:30:57.999Z,20.94
2016-09-13T07:31:38.585Z,20.94
2016-09-13T07:32:19.097Z,21.01
2016-09-13T07:32:59.648Z,21.04
2016-09-13T07:33:40.162Z,20.97
2016-09-13T07:34:20.679Z,20.97
2016-09-13T07:35:01.197Z,21.01
2016-09-13T07:35:41.704Z,21.01
2016-09-13T07:36:22.234Z,21.17
2016-09-13T07:37:02.805Z,21.09
2016-09-13T07:37:43.330Z,21.16
2016-09-13T07:38:23.815Z,21.19
2016-09-13T07:39:04.357Z,21.34
2016-09-13T07:39:44.912Z,21.32
2016-09-13T07:40:25.446Z,21.37
2016-09-13T07:41:05.996Z,21.42
2016-09-13T07:41:46.540Z,21.44
2016-09-13T07:42:27.062Z,21.46
2016-09-13T07:43:07.588Z,21.46
2016-09-13T07:43:49.026Z,21.52
2016-09-13T07:44:29.497Z,21.54
2016-09-13T07:45:10.055Z,21.58
2016-09-13T07:45:50.548Z,21.64
2016-09-13T07:46:31.104Z,21.56
2016-09-13T07:47:11.638Z,21.69
2016-09-13T07:47:52.159Z,21.64
2016-09-13T07:48:32.715Z,21.69
2016-09-13T07:49:13.274Z,21.74
2016-09-13T07:49:53.772Z,21.67
2016-09-13T07:50:34.307Z,21.75
2016-09-13T07:51:14.821Z,21.65
2016-09-13T07:51:55.381Z,21.8
2016-09-13T07:52:35.921Z,21.83
2016-09-13T07:53:16.466Z,21.88
2016-09-13T07:53:56.973Z,21.88
2016-09-13T07:54:37.568Z,21.96
2016-09-13T07:55:18.148Z,21.91
2016-09-13T07:55:58.630Z,21.96
2016-09-13T07:56:39.178Z,21.98
2016-09-13T07:57:19.795Z,22.05
2016-09-13T07:58:00.336Z,22.09
2016-09-13T07:58:40.853Z,22.2
2016-09-13T07:59:21.424Z,22.18
2016-09-13T08:00:01.983Z,22.15
2016-09-13T08:00:42.469Z,22.22
2016-09-13T08:01:22.994Z,22.3
2016-09-13T08:02:03.508Z,22.33
2016-09-13T08:02:44.338Z,22.42
2016-09-13T08:03:25.314Z,22.47
2016-09-13T08:04:06.348Z,22.46
2016-09-13T08:04:47.276Z,22.49
2016-09-13T08:05:28.330Z,22.55
2016-09-13T08:06:09.035Z,22.54
2016-09-13T08:06:49.880Z,22.58
2016-09-13T08:07:30.734Z,22.7
2016-09-13T08:08:11.811Z,22.67
2016-09-13T08:08:52.714Z,22.75
2016-09-13T08:09:33.710Z,22.72
2016-09-13T08:10:14.463Z,22.88
2016-09-13T08:10:55.509Z,22.85
2016-09-13T08:11:36.284Z,22.86
2016-09-13T08:12:16.758Z,22.91
2016-09-13T08:12:57.271Z,22.9
2016-09-13T08:13:37.785Z,22.97
2016-09-13T08:14:18.314Z,23.01
2016-09-13T08:14:58.875Z,23
2016-09-13T08:15:39.391Z,23.04
2016-09-13T08:16:19.941Z,23.05
2016-09-13T08:17:00.473Z,23.15
2016-09-13T08:17:41.003Z,23.13
2016-09-13T08:18:21.512Z,23.2
2016-09-13T08:19:02.031Z,23.23
2016-09-13T08:19:42.538Z,23.17
2016-09-13T08:20:23.079Z,23.35
2016-09-13T08:21:03.587Z,23.25
2016-09-13T08:21:44.112Z,23.35
2016-09-13T08:22:24.630Z,23.32
2016-09-13T08:23:05.156Z,23.43
2016-09-13T08:23:45.670Z,23.46
2016-09-13T08:24:26.214Z,23.48
2016-09-13T08:25:06.711Z,23.48
2016-09-13T08:25:47.217Z,23.55
2016-09-13T08:26:27.734Z,23.58
2016-09-13T08:27:08.263Z,23.63
2016-09-13T08:27:48.782Z,23.68
2016-09-13T08:28:29.311Z,23.66
2016-09-13T08:29:09.814Z,23.75
2016-09-13T08:29:50.360Z,23.72
2016-09-13T08:30:30.938Z,23.75
2016-09-13T08:31:11.457Z,23.79
2016-09-13T08:31:51.997Z,23.85
2016-09-13T08:32:32.538Z,23.87
2016-09-13T08:33:13.071Z,23.84
2016-09-13T08:33:53.597Z,23.87
2016-09-13T08:34:34.136Z,23.87
2016-09-13T08:35:14.686Z,23.94
2016-09-13T08:35:55.230Z,23.9
2016-09-13T08:36:35.750Z,23.9
2016-09-13T08:37:16.290Z,23.91
2016-09-13T08:37:56.829Z,23.95
2016-09-13T08:38:37.368Z,23.9
2016-09-13T08:39:17.910Z,23.94
2016-09-13T08:39:58.447Z,24.08
2016-09-13T08:40:38.969Z,24.15
2016-09-13T08:41:19.532Z,24.18
2016-09-13T08:42:00.076Z,24.15
2016-09-13T08:42:40.620Z,24.16
2016-09-13T08:43:21.171Z,24.25
2016-09-13T08:44:01.720Z,24.34
2016-09-13T08:44:42.270Z,24.4
2016-09-13T08:45:22.815Z,24.52